createdAt,value
2023-04-21T00:01:09.101Z,8.42
2023-04-21T00:03:38.749Z,8.41
2023-04-21T00:06:07.356Z,8.38
2023-04-21T00:08:40.750Z,8.36
2023-04-21T00:11:09.403Z,8.34
2023-04-21T00:13:38.940Z,8.32
2023-04-21T00:16:07.510Z,8.30
2023-04-21T00:18:36.575Z,8.30
2023-04-21T00:21:04.831Z,8.29
2023-04-21T00:23:33.061Z,8.30
2023-04-21T00:26:03.057Z,8.31
2023-04-21T00:28:32.165Z,8.30
2023-04-21T00:31:00.363Z,8.30
2023-04-21T00:33:28.917Z,8.27
2023-04-21T00:35:59.518Z,8.21
2023-04-21T00:38:29.223Z,8.20
2023-04-21T00:40:57.261Z,8.16
2023-04-21T00:43:28.606Z,8.12
2023-04-21T00:45:56.898Z,8.08
2023-04-21T00:48:25.124Z,8.05
2023-04-21T00:50:53.226Z,8.06
2023-04-21T00:53:21.412Z,8.08
2023-04-21T00:55:50.469Z,8.12
2023-04-21T00:58:19.455Z,8.16
2023-04-21T01:00:47.846Z,8.18
2023-04-21T01:03:16.123Z,8.18
2023-04-21T01:05:44.545Z,8.16
2023-04-21T01:08:13.642Z,8.11
2023-04-21T01:10:44.204Z,8.07
2023-04-21T01:13:13.658Z,8.03
2023-04-21T01:15:41.928Z,8.02
2023-04-21T01:18:10.136Z,8.01
2023-04-21T01:20:39.065Z,8.04
2023-04-21T01:23:07.553Z,8.08
2023-04-21T01:25:36.185Z,8.08
2023-04-21T01:28:06.251Z,8.09
2023-04-21T01:30:34.255Z,8.10
2023-04-21T01:33:02.568Z,8.10
2023-04-21T01:35:31.199Z,8.09
2023-04-21T01:37:59.376Z,8.08
2023-04-21T01:40:27.283Z,8.06
2023-04-21T01:42:56.711Z,8.02
2023-04-21T01:45:24.804Z,7.99
2023-04-21T01:47:52.907Z,7.97
2023-04-21T01:50:20.983Z,7.95
2023-04-21T01:52:49.155Z,7.98
2023-04-21T01:55:17.568Z,8.00
2023-04-21T01:57:46.113Z,7.97
2023-04-21T02:00:14.927Z,7.93
2023-04-21T02:02:46.608Z,7.91
2023-04-21T02:05:15.521Z,7.90
2023-04-21T02:07:43.748Z,7.89
2023-04-21T02:10:11.948Z,7.89
2023-04-21T02:12:41.184Z,7.91
2023-04-21T02:15:11.543Z,7.91
2023-04-21T02:17:40.580Z,7.93
2023-04-21T02:20:09.094Z,7.91
2023-04-21T02:22:38.458Z,7.89
2023-04-21T02:25:06.483Z,7.88
2023-04-21T02:27:34.929Z,7.92
2023-04-21T02:30:03.969Z,7.99
2023-04-21T02:32:32.758Z,8.03
2023-04-21T02:35:01.127Z,8.04
2023-04-21T02:37:29.585Z,8.05
2023-04-21T02:39:57.622Z,8.04
2023-04-21T02:42:25.833Z,8.00
2023-04-21T02:44:53.820Z,7.97
2023-04-21T02:47:22.280Z,7.96
2023-04-21T02:49:50.474Z,7.92
2023-04-21T02:52:20.340Z,7.88
2023-04-21T02:54:48.319Z,7.86
2023-04-21T02:57:16.383Z,7.84
2023-04-21T02:59:44.406Z,7.82
2023-04-21T03:02:12.637Z,7.81
2023-04-21T03:04:41.173Z,7.79
2023-04-21T03:07:13.384Z,7.75
2023-04-21T03:09:41.431Z,7.73
2023-04-21T03:12:09.273Z,7.72
2023-04-21T03:14:37.700Z,7.72
2023-04-21T03:17:05.802Z,7.74
2023-04-21T03:19:33.908Z,7.75
2023-04-21T03:22:01.898Z,7.75
2023-04-21T03:24:30.722Z,7.74
2023-04-21T03:26:59.411Z,7.72
2023-04-21T03:29:28.351Z,7.68
2023-04-21T03:31:56.466Z,7.64
2023-04-21T03:34:24.842Z,7.61
2023-04-21T03:36:52.824Z,7.61
2023-04-21T03:39:20.829Z,7.61
2023-04-21T03:41:50.113Z,7.61
2023-04-21T03:44:18.016Z,7.59
2023-04-21T03:46:46.118Z,7.57
2023-04-21T03:49:14.109Z,7.55
2023-04-21T03:51:42.033Z,7.54
2023-04-21T03:54:09.965Z,7.52
2023-04-21T03:56:37.864Z,7.50
2023-04-21T03:59:06.296Z,7.47
2023-04-21T04:01:34.790Z,7.49
2023-04-21T04:04:02.902Z,7.52
2023-04-21T04:06:33.317Z,7.55
2023-04-21T04:09:04.719Z,7.59
2023-04-21T04:11:33.046Z,7.61
2023-04-21T04:14:01.038Z,7.62
2023-04-21T04:16:29.516Z,7.62
2023-04-21T04:18:58.774Z,7.64
2023-04-21T04:21:27.611Z,7.68
2023-04-21T04:23:55.845Z,7.71
2023-04-21T04:26:25.005Z,7.73
2023-04-21T04:28:53.688Z,7.76
2023-04-21T04:31:22.640Z,7.79
2023-04-21T04:33:54.133Z,7.80
2023-04-21T04:36:24.268Z,7.83
2023-04-21T04:38:52.200Z,7.90
2023-04-21T04:41:21.146Z,7.97
2023-04-21T04:43:49.382Z,8.03
2023-04-21T04:46:17.434Z,8.08
2023-04-21T04:48:45.761Z,8.11
2023-04-21T04:51:13.832Z,8.15
2023-04-21T04:53:42.120Z,8.19
2023-04-21T04:56:10.004Z,8.24
2023-04-21T04:58:37.939Z,8.26
2023-04-21T05:01:16.123Z,8.25
2023-04-21T05:03:44.730Z,8.27
2023-04-21T05:06:14.367Z,8.32
2023-04-21T05:08:42.596Z,8.32
2023-04-21T05:11:10.751Z,8.33
2023-04-21T05:13:40.211Z,8.37
2023-04-21T05:16:09.916Z,8.39
2023-04-21T05:18:38.340Z,8.42
2023-04-21T05:21:06.281Z,8.45
2023-04-21T05:23:35.030Z,8.49
2023-04-21T05:26:04.458Z,8.52
2023-04-21T05:28:33.271Z,8.57
2023-04-21T05:31:01.487Z,8.59
2023-04-21T05:33:32.058Z,8.61
2023-04-21T05:36:00.290Z,8.64
2023-04-21T05:38:30.141Z,8.67
2023-04-21T05:40:58.310Z,8.71
2023-04-21T05:43:26.854Z,8.76
2023-04-21T05:45:54.994Z,8.80
2023-04-21T05:48:23.531Z,8.86
2023-04-21T05:50:51.487Z,8.89
2023-04-21T05:53:19.414Z,8.93
2023-04-21T05:55:47.364Z,8.98
2023-04-21T05:58:15.666Z,9.01
2023-04-21T06:00:43.793Z,9.05
2023-04-21T06:03:12.623Z,9.09
2023-04-21T06:05:41.121Z,9.14
2023-04-21T06:08:09.446Z,9.15
2023-04-21T06:10:37.587Z,9.16
2023-04-21T06:13:05.532Z,9.17
2023-04-21T06:15:33.878Z,9.20
2023-04-21T06:18:01.999Z,9.24
2023-04-21T06:20:30.436Z,9.30
2023-04-21T06:22:58.636Z,9.38
2023-04-21T06:25:26.508Z,9.44
2023-04-21T06:27:54.490Z,9.51
2023-04-21T06:30:22.569Z,9.57
2023-04-21T06:32:50.581Z,9.62
2023-04-21T06:35:20.546Z,9.68
2023-04-21T06:37:48.493Z,9.76
2023-04-21T06:40:16.513Z,9.85
2023-04-21T06:42:44.488Z,9.96
2023-04-21T06:45:12.385Z,10.08
2023-04-21T06:47:40.383Z,10.19
2023-04-21T06:50:09.210Z,10.28
2023-04-21T06:52:38.320Z,10.35
2023-04-21T06:55:06.941Z,10.41
2023-04-21T06:57:35.321Z,10.47
2023-04-21T07:00:05.879Z,10.51
2023-04-21T07:02:34.244Z,10.55
2023-04-21T07:05:02.180Z,10.58
2023-04-21T07:07:30.974Z,10.62
2023-04-21T07:09:58.843Z,10.65
2023-04-21T07:12:26.923Z,10.69
2023-04-21T07:14:54.840Z,10.73
2023-04-21T07:17:22.709Z,10.77
2023-04-21T07:19:50.666Z,10.83
2023-04-21T07:22:18.705Z,10.89
2023-04-21T07:24:49.117Z,10.96
2023-04-21T07:27:19.480Z,11.04
2023-04-21T07:29:47.353Z,11.11
2023-04-21T07:32:15.714Z,11.21
2023-04-21T07:34:47.023Z,11.31
2023-04-21T07:37:15.120Z,11.41
2023-04-21T07:39:43.160Z,11.51
2023-04-21T07:42:11.367Z,11.59
2023-04-21T07:44:39.226Z,11.63
2023-04-21T07:47:07.289Z,11.66
2023-04-21T07:49:35.435Z,11.69
2023-04-21T07:52:03.327Z,11.73
2023-04-21T07:54:32.265Z,11.78
2023-04-21T07:57:01.796Z,11.81
2023-04-21T07:59:29.753Z,11.83
2023-04-21T08:01:57.790Z,11.82
2023-04-21T08:04:26.143Z,11.82
2023-04-21T08:06:54.401Z,11.80
2023-04-21T08:09:22.955Z,11.79
2023-04-21T08:11:51.288Z,11.82
2023-04-21T08:14:19.291Z,11.86
2023-04-21T08:16:47.685Z,11.92
2023-04-21T08:19:15.877Z,11.97
2023-04-21T08:21:43.748Z,12.00
2023-04-21T08:24:11.723Z,12.05
2023-04-21T08:26:40.187Z,12.06
2023-04-21T08:29:10.654Z,12.03
2023-04-21T08:31:39.364Z,12.01
2023-04-21T08:34:07.403Z,12.00
2023-04-21T08:36:35.507Z,11.99
2023-04-21T08:39:04.255Z,11.99
2023-04-21T08:41:32.193Z,12.02
2023-04-21T08:44:00.378Z,12.02
2023-04-21T08:46:28.395Z,12.07
2023-04-21T08:48:59.574Z,12.11
2023-04-21T08:51:27.738Z,12.10
2023-04-21T08:53:55.902Z,12.10
2023-04-21T08:56:24.680Z,12.08
2023-04-21T08:58:52.948Z,12.12
2023-04-21T09:01:21.208Z,12.15
2023-04-21T09:03:49.198Z,12.19
2023-04-21T09:06:17.727Z,12.21
2023-04-21T09:08:58.539Z,12.20
2023-04-21T09:11:26.503Z,12.21
2023-04-21T09:13:54.385Z,12.20
2023-04-21T09:16:22.681Z,12.15
2023-04-21T09:18:51.736Z,12.16
2023-04-21T09:21:20.496Z,12.19
2023-04-21T09:23:49.478Z,12.21
2023-04-21T09:26:18.104Z,12.20
2023-04-21T09:28:46.542Z,12.17
2023-04-21T09:31:16.506Z,12.15
2023-04-21T09:33:56.568Z,12.11
2023-04-21T09:36:28.101Z,12.07
2023-04-21T09:39:29.146Z,12.09
2023-04-21T09:41:51.197Z,12.10
2023-04-21T09:44:19.453Z,12.05
2023-04-21T09:46:48.500Z,12.03
2023-04-21T09:49:20.086Z,12.01
2023-04-21T09:56:52.030Z,11.81
2023-04-21T09:59:22.345Z,11.80
2023-04-21T10:01:51.562Z,11.76
2023-04-21T10:04:20.028Z,11.72
2023-04-21T10:06:48.747Z,11.65
2023-04-21T10:09:16.751Z,11.56
2023-04-21T10:11:44.934Z,11.49
2023-04-21T10:14:12.823Z,11.46
2023-04-21T10:16:42.162Z,11.48
2023-04-21T10:19:26.175Z,11.51
2023-04-21T10:21:59.954Z,11.52
2023-04-21T10:24:29.163Z,11.58
2023-04-21T10:26:59.500Z,11.67
2023-04-21T10:29:43.649Z,11.76
2023-04-21T10:32:38.495Z,11.84
2023-04-21T10:35:08.903Z,11.93
2023-04-21T10:37:36.780Z,12.03
2023-04-21T10:40:09.667Z,12.09
2023-04-21T10:42:38.013Z,12.12
2023-04-21T10:45:09.976Z,12.13
2023-04-21T10:47:45.466Z,12.16
2023-04-21T10:50:14.745Z,12.21
2023-04-21T10:53:06.285Z,12.22
2023-04-21T10:55:34.163Z,12.25
2023-04-21T10:58:02.771Z,12.30
2023-04-21T11:00:30.831Z,12.38
2023-04-21T11:03:00.270Z,12.47
2023-04-21T11:05:32.326Z,12.60
2023-04-21T11:08:06.563Z,12.73
2023-04-21T11:10:47.006Z,12.82
2023-04-21T11:13:14.905Z,12.93
2023-04-21T11:15:52.917Z,13.01
2023-04-21T11:18:21.014Z,13.08
2023-04-21T11:20:49.003Z,13.18
2023-04-21T11:23:18.917Z,13.20
2023-04-21T11:25:49.526Z,13.21
2023-04-21T11:28:22.932Z,13.24
2023-04-21T11:30:50.914Z,13.28
2023-04-21T11:33:19.331Z,13.32
2023-04-21T11:35:47.219Z,13.42
2023-04-21T11:38:16.769Z,13.49
2023-04-21T11:40:47.773Z,13.56
2023-04-21T11:43:15.650Z,13.56
2023-04-21T11:45:43.567Z,13.53
2023-04-21T11:48:21.168Z,13.54
2023-04-21T11:50:49.706Z,13.59
2023-04-21T11:53:18.044Z,13.63
2023-04-21T11:55:45.997Z,13.65
2023-04-21T11:58:16.317Z,13.62
2023-04-21T12:00:45.524Z,13.63
2023-04-21T12:03:14.066Z,13.69
2023-04-21T12:05:42.234Z,13.71
2023-04-21T12:08:14.795Z,13.72
2023-04-21T12:10:44.997Z,13.75
2023-04-21T12:13:13.647Z,13.78
2023-04-21T12:15:41.755Z,13.80
2023-04-21T12:18:12.873Z,13.80
2023-04-21T12:20:48.606Z,13.86
2023-04-21T12:23:17.425Z,13.95
2023-04-21T12:25:47.015Z,14.05
2023-04-21T12:28:16.122Z,14.17
2023-04-21T12:30:44.559Z,14.23
2023-04-21T12:33:13.229Z,14.26
2023-04-21T12:35:41.347Z,14.36
2023-04-21T12:38:09.441Z,14.44
2023-04-21T12:40:37.526Z,14.45
2023-04-21T12:43:05.763Z,14.44
2023-04-21T12:45:33.889Z,14.53
2023-04-21T12:48:01.894Z,14.60
2023-04-21T12:50:30.542Z,14.66
2023-04-21T12:52:59.044Z,14.67
2023-04-21T12:55:26.982Z,14.61
2023-04-21T12:57:54.916Z,14.52
2023-04-21T13:00:22.869Z,14.53
2023-04-21T13:02:51.334Z,14.53
2023-04-21T13:05:19.477Z,14.52
2023-04-21T13:07:47.702Z,14.51
2023-04-21T13:10:16.190Z,14.52
2023-04-21T13:12:44.711Z,14.54
2023-04-21T13:15:12.586Z,14.58
2023-04-21T13:17:41.476Z,14.59
2023-04-21T13:20:09.663Z,14.59
2023-04-21T13:22:38.075Z,14.67
2023-04-21T13:25:06.139Z,14.76
2023-04-21T13:27:35.046Z,14.80
2023-04-21T13:30:03.024Z,14.83
2023-04-21T13:32:31.279Z,14.84
2023-04-21T13:34:59.251Z,14.86
2023-04-21T13:37:27.197Z,14.86
2023-04-21T13:39:55.305Z,14.83
2023-04-21T13:42:23.218Z,14.79
2023-04-21T13:44:51.155Z,14.77
2023-04-21T13:47:19.012Z,14.79
2023-04-21T13:49:47.362Z,14.83
2023-04-21T13:52:15.232Z,14.87
2023-04-21T13:54:43.232Z,14.82
2023-04-21T13:57:11.260Z,14.79
2023-04-21T13:59:39.356Z,14.81
2023-04-21T14:02:07.705Z,14.87
2023-04-21T14:04:37.473Z,14.93
2023-04-21T14:07:08.234Z,14.97
2023-04-21T14:09:37.069Z,15.03
2023-04-21T14:12:05.010Z,15.10
2023-04-21T14:17:05.945Z,15.19
2023-04-21T14:19:36.234Z,15.28
2023-04-21T14:22:05.916Z,15.36
2023-04-21T14:24:34.093Z,15.42
2023-04-21T14:27:02.200Z,15.45
2023-04-21T14:29:30.413Z,15.45
2023-04-21T14:31:59.562Z,15.42
2023-04-21T14:34:27.681Z,15.42
2023-04-21T14:36:56.021Z,15.40
2023-04-21T14:39:24.139Z,15.39
2023-04-21T14:41:52.286Z,15.32
2023-04-21T14:44:20.432Z,15.26
2023-04-21T14:47:00.819Z,15.15
2023-04-21T14:49:34.245Z,15.04
2023-04-21T14:52:03.688Z,15.03
2023-04-21T14:54:31.788Z,15.01
2023-04-21T14:57:17.828Z,14.89
2023-04-21T14:59:51.617Z,14.70
2023-04-21T15:02:20.789Z,14.58
2023-04-21T15:04:49.300Z,14.49
2023-04-21T15:07:23.105Z,14.41
2023-04-21T15:09:52.231Z,14.32
2023-04-21T15:12:20.518Z,14.21
2023-04-21T15:14:48.592Z,14.07
2023-04-21T15:17:16.746Z,13.98
2023-04-21T15:19:44.812Z,13.94
2023-04-21T15:22:12.697Z,13.88
2023-04-21T15:24:40.966Z,13.76
2023-04-21T15:27:09.700Z,13.68
2023-04-21T15:29:38.184Z,13.61
2023-04-21T15:32:06.277Z,13.55
2023-04-21T15:34:34.259Z,13.50
2023-04-21T15:37:02.178Z,13.47
2023-04-21T15:39:30.110Z,13.47
2023-04-21T15:41:59.303Z,13.46
2023-04-21T15:44:27.509Z,13.44
2023-04-21T15:46:56.960Z,13.40
2023-04-21T15:49:27.474Z,13.35
2023-04-21T15:51:58.647Z,13.26
2023-04-21T15:54:26.638Z,13.10
2023-04-21T15:56:54.591Z,12.98
2023-04-21T15:59:23.824Z,12.87
2023-04-21T16:01:53.952Z,12.78
2023-04-21T16:04:22.157Z,12.71
2023-04-21T16:06:50.386Z,12.65
2023-04-21T16:09:18.478Z,12.61
2023-04-21T16:11:46.494Z,12.55
2023-04-21T16:14:18.795Z,12.50
2023-04-21T16:16:47.265Z,12.44
2023-04-21T16:19:16.267Z,12.39
2023-04-21T16:21:44.274Z,12.36
2023-04-21T16:24:12.370Z,12.32
2023-04-21T16:26:41.564Z,12.27
2023-04-21T16:29:09.572Z,12.21
2023-04-21T16:31:37.886Z,12.15
2023-04-21T16:34:08.842Z,12.10
2023-04-21T16:36:37.279Z,12.06
2023-04-21T16:39:05.875Z,12.02
2023-04-21T16:41:34.919Z,11.99
2023-04-21T16:44:03.114Z,11.99
2023-04-21T16:46:31.147Z,11.98
2023-04-21T16:48:59.358Z,11.97
2023-04-21T16:51:28.680Z,11.98
2023-04-21T16:53:56.840Z,11.94
2023-04-21T16:56:25.316Z,11.89
2023-04-21T16:58:53.389Z,11.85
2023-04-21T17:01:21.435Z,11.80
2023-04-21T17:03:50.833Z,11.77
2023-04-21T17:06:21.474Z,11.73
2023-04-21T17:09:00.326Z,11.67
2023-04-21T17:11:31.619Z,11.63
2023-04-21T17:13:59.600Z,11.57
2023-04-21T17:16:27.595Z,11.55
2023-04-21T17:18:56.222Z,11.55
2023-04-21T17:21:24.258Z,11.56
2023-04-21T17:23:52.330Z,11.59
2023-04-21T17:26:20.270Z,11.62
2023-04-21T17:28:48.465Z,11.63
2023-04-21T17:31:16.661Z,11.65
2023-04-21T17:33:46.963Z,11.67
2023-04-21T17:36:17.673Z,11.68
2023-04-21T17:38:45.886Z,11.66
2023-04-21T17:41:13.915Z,11.66
2023-04-21T17:43:42.134Z,11.66
2023-04-21T17:46:11.393Z,11.63
2023-04-21T17:48:39.405Z,11.60
2023-04-21T17:51:07.303Z,11.55
2023-04-21T17:53:35.828Z,11.49
2023-04-21T17:56:03.893Z,11.44
2023-04-21T17:58:34.136Z,11.42
2023-04-21T18:01:02.216Z,11.41
2023-04-21T18:03:30.395Z,11.41
2023-04-21T18:05:58.639Z,11.44
2023-04-21T18:08:27.109Z,11.45
2023-04-21T18:10:55.248Z,11.48
2023-04-21T18:13:23.106Z,11.48
2023-04-21T18:15:51.166Z,11.50
2023-04-21T18:18:19.131Z,11.50
2023-04-21T18:20:47.119Z,11.48
2023-04-21T18:23:15.055Z,11.45
2023-04-21T18:25:43.414Z,11.42
2023-04-21T18:28:12.977Z,11.38
2023-04-21T18:30:41.375Z,11.35
2023-04-21T18:33:10.196Z,11.33
2023-04-21T18:35:38.361Z,11.31
2023-04-21T18:38:08.306Z,11.30
2023-04-21T18:40:37.448Z,11.29
2023-04-21T18:43:05.476Z,11.28
2023-04-21T18:45:34.239Z,11.26
2023-04-21T18:48:02.373Z,11.25
2023-04-21T18:50:32.544Z,11.24
2023-04-21T18:53:00.532Z,11.23
2023-04-21T18:55:29.590Z,11.20
2023-04-21T18:57:57.548Z,11.15
2023-04-21T19:00:25.779Z,11.13
2023-04-21T19:02:54.631Z,11.13
2023-04-21T19:05:22.720Z,11.16
2023-04-21T19:07:50.793Z,11.19
2023-04-21T19:10:18.830Z,11.20
2023-04-21T19:12:46.915Z,11.21
2023-04-21T19:15:15.105Z,11.22
2023-04-21T19:17:43.254Z,11.21
2023-04-21T19:20:11.743Z,11.19
2023-04-21T19:22:40.113Z,11.16
2023-04-21T19:25:08.706Z,11.13
2023-04-21T19:27:37.512Z,11.10
2023-04-21T19:30:05.954Z,11.07
2023-04-21T19:32:34.274Z,11.03
2023-04-21T19:35:02.549Z,11.02
2023-04-21T19:37:32.314Z,11.00
2023-04-21T19:40:02.386Z,10.99
2023-04-21T19:42:30.759Z,10.99
2023-04-21T19:44:58.943Z,10.98
2023-04-21T19:47:27.003Z,10.96
2023-04-21T19:49:54.974Z,10.96
2023-04-21T19:52:23.049Z,10.94
2023-04-21T19:54:51.137Z,10.93
2023-04-21T19:57:19.126Z,10.92
2023-04-21T19:59:49.204Z,10.91
2023-04-21T20:02:17.267Z,10.91
2023-04-21T20:04:45.429Z,10.91
2023-04-21T20:07:13.352Z,10.93
2023-04-21T20:09:41.482Z,10.96
2023-04-21T20:12:09.493Z,10.99
2023-04-21T20:14:39.049Z,11.00
2023-04-21T20:17:07.249Z,11.01
2023-04-21T20:19:35.838Z,10.99
2023-04-21T20:22:04.507Z,10.97
2023-04-21T20:24:32.893Z,10.94
2023-04-21T20:27:00.912Z,10.92
2023-04-21T20:29:28.948Z,10.90
2023-04-21T20:31:57.787Z,10.87
2023-04-21T20:34:26.070Z,10.85
2023-04-21T20:36:57.705Z,10.83
2023-04-21T20:39:25.695Z,10.82
2023-04-21T20:42:08.904Z,10.80
2023-04-21T20:44:42.743Z,10.79
2023-04-21T20:47:11.571Z,10.80
2023-04-21T20:49:40.585Z,10.82
2023-04-21T20:52:10.149Z,10.84
2023-04-21T20:54:38.724Z,10.87
2023-04-21T20:57:07.735Z,10.89
2023-04-21T20:59:36.022Z,10.90
2023-04-21T21:02:05.692Z,10.89
2023-04-21T21:04:34.253Z,10.87
2023-04-21T21:07:02.801Z,10.85
2023-04-21T21:09:31.372Z,10.84
2023-04-21T21:11:59.547Z,10.81
2023-04-21T21:14:27.575Z,10.79
2023-04-21T21:16:56.595Z,10.77
2023-04-21T21:19:24.719Z,10.79
2023-04-21T21:21:52.651Z,10.82
2023-04-21T21:24:20.698Z,10.83
2023-04-21T21:26:48.753Z,10.83
2023-04-21T21:29:16.667Z,10.82
2023-04-21T21:31:44.628Z,10.80
2023-04-21T21:34:12.990Z,10.77
2023-04-21T21:36:41.646Z,10.74
2023-04-21T21:39:11.300Z,10.70
2023-04-21T21:41:39.841Z,10.66
2023-04-21T21:44:08.330Z,10.61
2023-04-21T21:46:36.418Z,10.59
2023-04-21T21:49:04.885Z,10.58
2023-04-21T21:51:32.800Z,10.59
2023-04-21T21:54:01.065Z,10.61
2023-04-21T21:56:29.233Z,10.63
2023-04-21T21:58:57.160Z,10.64
2023-04-21T22:01:25.086Z,10.63
2023-04-21T22:03:53.930Z,10.61
2023-04-21T22:06:26.821Z,10.58
2023-04-21T22:08:54.954Z,10.56
2023-04-21T22:11:22.923Z,10.54
2023-04-21T22:13:51.535Z,10.54
2023-04-21T22:16:19.594Z,10.55
2023-04-21T22:18:48.451Z,10.55
2023-04-21T22:21:16.465Z,10.56
2023-04-21T22:23:44.522Z,10.59
2023-04-21T22:26:12.477Z,10.59
2023-04-21T22:28:41.997Z,10.58
2023-04-21T22:31:10.652Z,10.54
2023-04-21T22:33:38.641Z,10.49
2023-04-21T22:36:09.661Z,10.45
2023-04-21T22:38:39.071Z,10.42
2023-04-21T22:41:07.216Z,10.41
2023-04-21T22:43:35.899Z,10.40
2023-04-21T22:46:07.044Z,10.39
2023-04-21T22:48:37.211Z,10.37
2023-04-21T22:51:06.348Z,10.36
2023-04-21T22:53:34.645Z,10.34
2023-04-21T22:56:02.701Z,10.33
2023-04-21T22:58:31.066Z,10.31
2023-04-21T23:00:58.957Z,10.29
2023-04-21T23:03:27.198Z,10.27
2023-04-21T23:05:55.753Z,10.24
2023-04-21T23:08:23.707Z,10.23
2023-04-21T23:10:51.816Z,10.22
2023-04-21T23:13:20.149Z,10.20
2023-04-21T23:15:48.092Z,10.16
2023-04-21T23:18:15.986Z,10.11
2023-04-21T23:20:43.912Z,10.06
2023-04-21T23:23:11.833Z,10.01
2023-04-21T23:25:39.979Z,9.95
2023-04-21T23:28:08.345Z,9.89
2023-04-21T23:30:37.351Z,9.84
2023-04-21T23:33:05.387Z,9.80
2023-04-21T23:35:34.121Z,9.77
2023-04-21T23:38:02.024Z,9.74
2023-04-21T23:40:30.411Z,9.71
2023-04-21T23:42:58.453Z,9.64
2023-04-21T23:45:26.356Z,9.57
2023-04-21T23:47:55.607Z,9.51
2023-04-21T23:50:23.686Z,9.46
2023-04-21T23:52:51.639Z,9.42
2023-04-21T23:55:19.539Z,9.41
2023-04-21T23:57:47.769Z,9.40
